sensor_id;sensor_type;location;lat;lon;timestamp;temperature;humidity
13998;DHT22;7074;51.508;7.018;2022-09-09T00:01:49;18.40;99.90
13998;DHT22;7074;51.508;7.018;2022-09-09T00:04:24;18.30;99.90
13998;DHT22;7074;51.508;7.018;2022-09-09T00:07:00;18.30;99.90
13998;DHT22;7074;51.508;7.018;2022-09-09T00:09:31;18.30;99.90
13998;DHT22;7074;51.508;7.018;2022-09-09T00:12:06;18.30;99.90
13998;DHT22;7074;51.508;7.018;2022-09-09T00:14:42;18.30;99.90
13998;DHT22;7074;51.508;7.018;2022-09-09T00:17:16;18.40;99.90
13998;DHT22;7074;51.508;7.018;2022-09-09T00:19:48;18.40;99.90
13998;DHT22;7074;51.508;7.018;2022-09-09T00:22:18;18.30;99.90
13998;DHT22;7074;51.508;7.018;2022-09-09T00:24:48;18.40;99.90
13998;DHT22;7074;51.508;7.018;2022-09-09T00:27:24;18.30;99.90
13998;DHT22;7074;51.508;7.018;2022-09-09T00:29:56;18.40;99.90
13998;DHT22;7074;51.508;7.018;2022-09-09T00:32:29;18.40;99.90
13998;DHT22;7074;51.508;7.018;2022-09-09T00:35:00;18.40;99.90
13998;DHT22;7074;51.508;7.018;2022-09-09T00:37:28;18.40;99.90
13998;DHT22;7074;51.508;7.018;2022-09-09T00:40:00;18.40;99.90
13998;DHT22;7074;51.508;7.018;2022-09-09T00:42:36;18.30;99.90
13998;DHT22;7074;51.508;7.018;2022-09-09T00:45:19;18.30;99.90
13998;DHT22;7074;51.508;7.018;2022-09-09T00:47:53;18.30;99.90
13998;DHT22;7074;51.508;7.018;2022-09-09T00:50:35;18.20;99.90
13998;DHT22;7074;51.508;7.018;2022-09-09T00:53:18;18.20;99.90
13998;DHT22;7074;51.508;7.018;2022-09-09T00:55:50;18.10;99.90
13998;DHT22;7074;51.508;7.018;2022-09-09T00:58:22;18.10;99.90
13998;DHT22;7074;51.508;7.018;2022-09-09T01:00:52;18.10;99.90
13998;DHT22;7074;51.508;7.018;2022-09-09T01:03:33;18.10;99.90
13998;DHT22;7074;51.508;7.018;2022-09-09T01:06:15;18.10;99.90
13998;DHT22;7074;51.508;7.018;2022-09-09T01:08:56;18.10;99.90
13998;DHT22;7074;51.508;7.018;2022-09-09T01:11:28;18.20;99.90
13998;DHT22;7074;51.508;7.018;2022-09-09T01:14:13;18.20;99.90
13998;DHT22;7074;51.508;7.018;2022-09-09T01:16:42;18.20;99.90
13998;DHT22;7074;51.508;7.018;2022-09-09T01:19:18;18.20;99.90
13998;DHT22;7074;51.508;7.018;2022-09-09T01:21:52;18.20;99.90
13998;DHT22;7074;51.508;7.018;2022-09-09T01:24:27;18.30;99.90
13998;DHT22;7074;51.508;7.018;2022-09-09T01:27:13;18.30;99.90
13998;DHT22;7074;51.508;7.018;2022-09-09T01:29:41;18.20;99.90
13998;DHT22;7074;51.508;7.018;2022-09-09T01:32:40;18.20;99.90
13998;DHT22;7074;51.508;7.018;2022-09-09T01:35:12;18.20;99.90
13998;DHT22;7074;51.508;7.018;2022-09-09T01:37:42;18.20;99.90
13998;DHT22;7074;51.508;7.018;2022-09-09T01:40:09;18.30;99.90
13998;DHT22;7074;51.508;7.018;2022-09-09T01:42:39;18.30;99.90
13998;DHT22;7074;51.508;7.018;2022-09-09T01:45:07;18.30;99.90
13998;DHT22;7074;51.508;7.018;2022-09-09T01:47:35;18.30;99.90
13998;DHT22;7074;51.508;7.018;2022-09-09T01:50:21;18.20;99.90
13998;DHT22;7074;51.508;7.018;2022-09-09T01:52:52;18.20;99.90
13998;DHT22;7074;51.508;7.018;2022-09-09T01:55:29;18.10;99.90
13998;DHT22;7074;51.508;7.018;2022-09-09T01:58:15;18.10;99.90
13998;DHT22;7074;51.508;7.018;2022-09-09T02:00:56;18.10;99.90
13998;DHT22;7074;51.508;7.018;2022-09-09T02:03:28;18.20;99.90
13998;DHT22;7074;51.508;7.018;2022-09-09T02:06:17;18.10;99.90
13998;DHT22;7074;51.508;7.018;2022-09-09T02:08:50;18.10;99.90
13998;DHT22;7074;51.508;7.018;2022-09-09T02:11:21;18.10;99.90
13998;DHT22;7074;51.508;7.018;2022-09-09T02:14:00;18.10;99.90
13998;DHT22;7074;51.508;7.018;2022-09-09T02:16:32;18.10;99.90
13998;DHT22;7074;51.508;7.018;2022-09-09T02:19:08;18.10;99.90
13998;DHT22;7074;51.508;7.018;2022-09-09T02:21:59;18.00;99.90
13998;DHT22;7074;51.508;7.018;2022-09-09T02:24:29;17.90;99.90
13998;DHT22;7074;51.508;7.018;2022-09-09T02:27:11;18.00;99.90
13998;DHT22;7074;51.508;7.018;2022-09-09T02:29:42;18.00;99.90
13998;DHT22;7074;51.508;7.018;2022-09-09T02:32:16;18.10;99.90
13998;DHT22;7074;51.508;7.018;2022-09-09T02:34:48;18.10;99.90
13998;DHT22;7074;51.508;7.018;2022-09-09T02:37:18;18.10;99.90
13998;DHT22;7074;51.508;7.018;2022-09-09T02:39:51;18.10;99.90
13998;DHT22;7074;51.508;7.018;2022-09-09T02:42:21;18.10;99.90
13998;DHT22;7074;51.508;7.018;2022-09-09T02:44:52;18.10;99.90
13998;DHT22;7074;51.508;7.018;2022-09-09T02:47:27;18.10;99.90
13998;DHT22;7074;51.508;7.018;2022-09-09T02:50:08;18.10;99.90
13998;DHT22;7074;51.508;7.018;2022-09-09T02:52:47;18.10;99.90
13998;DHT22;7074;51.508;7.018;2022-09-09T02:55:23;18.20;99.90
13998;DHT22;7074;51.508;7.018;2022-09-09T02:57:53;18.20;99.90
13998;DHT22;7074;51.508;7.018;2022-09-09T03:00:25;18.20;99.90
13998;DHT22;7074;51.508;7.018;2022-09-09T03:02:55;18.30;99.90
13998;DHT22;7074;51.508;7.018;2022-09-09T03:05:22;18.20;99.90
13998;DHT22;7074;51.508;7.018;2022-09-09T03:07:50;18.30;99.90
13998;DHT22;7074;51.508;7.018;2022-09-09T03:10:19;18.20;99.90
13998;DHT22;7074;51.508;7.018;2022-09-09T03:12:46;18.20;99.90
13998;DHT22;7074;51.508;7.018;2022-09-09T03:15:15;18.20;99.90
13998;DHT22;7074;51.508;7.018;2022-09-09T03:17:44;18.20;99.90
13998;DHT22;7074;51.508;7.018;2022-09-09T03:20:11;18.20;99.90
13998;DHT22;7074;51.508;7.018;2022-09-09T03:22:38;18.20;99.90
13998;DHT22;7074;51.508;7.018;2022-09-09T03:25:07;18.20;99.90
13998;DHT22;7074;51.508;7.018;2022-09-09T03:27:35;18.20;99.90
13998;DHT22;7074;51.508;7.018;2022-09-09T03:30:04;18.20;99.90
13998;DHT22;7074;51.508;7.018;2022-09-09T03:32:32;18.20;99.90
13998;DHT22;7074;51.508;7.018;2022-09-09T03:35:00;18.20;99.90
13998;DHT22;7074;51.508;7.018;2022-09-09T03:37:28;18.20;99.90
13998;DHT22;7074;51.508;7.018;2022-09-09T03:39:55;18.20;99.90
13998;DHT22;7074;51.508;7.018;2022-09-09T03:42:23;18.10;99.90
13998;DHT22;7074;51.508;7.018;2022-09-09T03:44:53;18.10;99.90
13998;DHT22;7074;51.508;7.018;2022-09-09T03:47:23;18.20;99.90
13998;DHT22;7074;51.508;7.018;2022-09-09T03:49:56;18.20;99.90
13998;DHT22;7074;51.508;7.018;2022-09-09T03:52:25;18.10;99.90
13998;DHT22;7074;51.508;7.018;2022-09-09T03:54:53;18.10;99.90
13998;DHT22;7074;51.508;7.018;2022-09-09T03:57:23;18.20;99.90
13998;DHT22;7074;51.508;7.018;2022-09-09T03:59:50;18.20;99.90
13998;DHT22;7074;51.508;7.018;2022-09-09T04:02:17;18.20;99.90
13998;DHT22;7074;51.508;7.018;2022-09-09T04:04:45;18.20;99.90
13998;DHT22;7074;51.508;7.018;2022-09-09T04:07:12;18.20;99.90
13998;DHT22;7074;51.508;7.018;2022-09-09T04:09:41;18.10;99.90
13998;DHT22;7074;51.508;7.018;2022-09-09T04:12:08;18.20;99.90
13998;DHT22;7074;51.508;7.018;2022-09-09T04:14:39;18.10;99.90
13998;DHT22;7074;51.508;7.018;2022-09-09T04:17:07;18.10;99.90
13998;DHT22;7074;51.508;7.018;2022-09-09T04:19:34;18.10;99.90
13998;DHT22;7074;51.508;7.018;2022-09-09T04:22:02;18.10;99.90
13998;DHT22;7074;51.508;7.018;2022-09-09T04:24:30;18.10;99.90
13998;DHT22;7074;51.508;7.018;2022-09-09T04:27:01;18.10;99.90
13998;DHT22;7074;51.508;7.018;2022-09-09T04:29:28;18.00;99.90
13998;DHT22;7074;51.508;7.018;2022-09-09T04:31:55;18.00;99.90
13998;DHT22;7074;51.508;7.018;2022-09-09T04:34:23;18.10;99.90
13998;DHT22;7074;51.508;7.018;2022-09-09T04:36:53;18.10;99.90
13998;DHT22;7074;51.508;7.018;2022-09-09T04:39:22;18.10;99.90
13998;DHT22;7074;51.508;7.018;2022-09-09T04:41:50;18.00;99.90
13998;DHT22;7074;51.508;7.018;2022-09-09T04:44:21;18.00;99.90
13998;DHT22;7074;51.508;7.018;2022-09-09T04:46:48;18.10;99.90
13998;DHT22;7074;51.508;7.018;2022-09-09T04:49:16;18.00;99.90
13998;DHT22;7074;51.508;7.018;2022-09-09T04:51:43;18.10;99.90
13998;DHT22;7074;51.508;7.018;2022-09-09T04:54:12;18.10;99.90
13998;DHT22;7074;51.508;7.018;2022-09-09T04:56:42;18.10;99.90
13998;DHT22;7074;51.508;7.018;2022-09-09T04:59:10;18.20;99.90
13998;DHT22;7074;51.508;7.018;2022-09-09T05:01:49;18.20;99.90
13998;DHT22;7074;51.508;7.018;2022-09-09T05:04:16;18.20;99.90
13998;DHT22;7074;51.508;7.018;2022-09-09T05:06:45;18.20;99.90
13998;DHT22;7074;51.508;7.018;2022-09-09T05:09:13;18.20;99.90
13998;DHT22;7074;51.508;7.018;2022-09-09T05:11:40;18.20;99.90
13998;DHT22;7074;51.508;7.018;2022-09-09T05:14:24;18.20;99.90
13998;DHT22;7074;51.508;7.018;2022-09-09T05:16:53;18.20;99.90
13998;DHT22;7074;51.508;7.018;2022-09-09T05:19:22;18.30;99.90
13998;DHT22;7074;51.508;7.018;2022-09-09T05:21:51;18.30;99.90
13998;DHT22;7074;51.508;7.018;2022-09-09T05:24:23;18.40;99.90
13998;DHT22;7074;51.508;7.018;2022-09-09T05:26:54;18.40;99.90
13998;DHT22;7074;51.508;7.018;2022-09-09T05:29:25;18.50;99.90
13998;DHT22;7074;51.508;7.018;2022-09-09T05:31:56;18.50;99.90
13998;DHT22;7074;51.508;7.018;2022-09-09T05:34:24;18.50;99.90
13998;DHT22;7074;51.508;7.018;2022-09-09T05:36:51;18.50;99.90
13998;DHT22;7074;51.508;7.018;2022-09-09T05:39:21;18.50;99.90
13998;DHT22;7074;51.508;7.018;2022-09-09T05:41:48;18.60;99.90
13998;DHT22;7074;51.508;7.018;2022-09-09T05:44:16;18.60;99.90
13998;DHT22;7074;51.508;7.018;2022-09-09T05:46:45;18.60;99.90
13998;DHT22;7074;51.508;7.018;2022-09-09T05:49:15;18.60;99.90
13998;DHT22;7074;51.508;7.018;2022-09-09T05:51:43;18.70;99.90
13998;DHT22;7074;51.508;7.018;2022-09-09T05:54:13;18.70;99.90
13998;DHT22;7074;51.508;7.018;2022-09-09T05:56:44;18.70;99.90
13998;DHT22;7074;51.508;7.018;2022-09-09T05:59:12;18.80;99.90
13998;DHT22;7074;51.508;7.018;2022-09-09T06:01:40;18.80;99.90
13998;DHT22;7074;51.508;7.018;2022-09-09T06:04:12;18.80;99.90
13998;DHT22;7074;51.508;7.018;2022-09-09T06:06:42;18.80;99.90
13998;DHT22;7074;51.508;7.018;2022-09-09T06:09:13;18.80;99.90
13998;DHT22;7074;51.508;7.018;2022-09-09T06:11:43;18.90;99.90
13998;DHT22;7074;51.508;7.018;2022-09-09T06:14:12;18.90;99.90
13998;DHT22;7074;51.508;7.018;2022-09-09T06:16:40;18.90;99.90
13998;DHT22;7074;51.508;7.018;2022-09-09T06:19:36;19.00;99.90
13998;DHT22;7074;51.508;7.018;2022-09-09T06:22:04;19.00;99.90
13998;DHT22;7074;51.508;7.018;2022-09-09T06:24:35;19.00;99.90
13998;DHT22;7074;51.508;7.018;2022-09-09T06:27:03;19.00;99.90
13998;DHT22;7074;51.508;7.018;2022-09-09T06:29:34;19.10;99.90
13998;DHT22;7074;51.508;7.018;2022-09-09T06:32:02;19.10;99.90
13998;DHT22;7074;51.508;7.018;2022-09-09T06:34:30;19.10;99.90
13998;DHT22;7074;51.508;7.018;2022-09-09T06:36:58;19.20;99.90
13998;DHT22;7074;51.508;7.018;2022-09-09T06:39:33;19.20;99.90
13998;DHT22;7074;51.508;7.018;2022-09-09T06:42:01;19.20;99.90
13998;DHT22;7074;51.508;7.018;2022-09-09T06:44:48;19.10;99.90
13998;DHT22;7074;51.508;7.018;2022-09-09T06:47:26;19.20;99.90
13998;DHT22;7074;51.508;7.018;2022-09-09T06:49:57;19.30;99.90
13998;DHT22;7074;51.508;7.018;2022-09-09T06:52:24;19.30;99.90
13998;DHT22;7074;51.508;7.018;2022-09-09T06:54:54;19.40;99.90
13998;DHT22;7074;51.508;7.018;2022-09-09T06:57:25;19.40;99.90
13998;DHT22;7074;51.508;7.018;2022-09-09T06:59:52;19.40;99.90
13998;DHT22;7074;51.508;7.018;2022-09-09T07:02:20;19.40;99.90
13998;DHT22;7074;51.508;7.018;2022-09-09T07:04:47;19.50;99.90
13998;DHT22;7074;51.508;7.018;2022-09-09T07:07:17;19.50;99.90
13998;DHT22;7074;51.508;7.018;2022-09-09T07:09:45;19.60;99.90
13998;DHT22;7074;51.508;7.018;2022-09-09T07:12:14;19.60;99.90
13998;DHT22;7074;51.508;7.018;2022-09-09T07:14:48;19.50;99.90
13998;DHT22;7074;51.508;7.018;2022-09-09T07:17:16;19.60;99.90
13998;DHT22;7074;51.508;7.018;2022-09-09T07:19:43;19.60;99.90
13998;DHT22;7074;51.508;7.018;2022-09-09T07:22:10;19.60;99.90
13998;DHT22;7074;51.508;7.018;2022-09-09T07:24:37;19.60;99.90
13998;DHT22;7074;51.508;7.018;2022-09-09T07:27:06;19.60;99.90
13998;DHT22;7074;51.508;7.018;2022-09-09T07:29:36;19.70;99.90
13998;DHT22;7074;51.508;7.018;2022-09-09T07:32:03;19.90;99.90
13998;DHT22;7074;51.508;7.018;2022-09-09T07:34:35;20.00;99.90
13998;DHT22;7074;51.508;7.018;2022-09-09T07:37:02;20.10;99.90
13998;DHT22;7074;51.508;7.018;2022-09-09T07:39:31;20.20;99.90
13998;DHT22;7074;51.508;7.018;2022-09-09T07:41:58;20.30;99.90
13998;DHT22;7074;51.508;7.018;2022-09-09T07:44:26;20.20;99.90
13998;DHT22;7074;51.508;7.018;2022-09-09T07:47:06;20.20;99.90
13998;DHT22;7074;51.508;7.018;2022-09-09T07:53:19;20.40;99.90
13998;DHT22;7074;51.508;7.018;2022-09-09T07:55:45;20.50;99.90
13998;DHT22;7074;51.508;7.018;2022-09-09T07:58:14;20.80;99.90
13998;DHT22;7074;51.508;7.018;2022-09-09T08:00:41;20.80;99.90
13998;DHT22;7074;51.508;7.018;2022-09-09T08:03:11;20.80;99.90
13998;DHT22;7074;51.508;7.018;2022-09-09T08:05:40;21.00;99.90
13998;DHT22;7074;51.508;7.018;2022-09-09T08:08:09;21.00;99.90
13998;DHT22;7074;51.508;7.018;2022-09-09T08:10:37;21.00;99.90
13998;DHT22;7074;51.508;7.018;2022-09-09T08:13:10;21.10;99.90
13998;DHT22;7074;51.508;7.018;2022-09-09T08:15:39;20.90;99.90
13998;DHT22;7074;51.508;7.018;2022-09-09T08:18:27;21.00;99.90
13998;DHT22;7074;51.508;7.018;2022-09-09T08:20:55;21.00;99.90
13998;DHT22;7074;51.508;7.018;2022-09-09T08:23:22;21.00;99.90
13998;DHT22;7074;51.508;7.018;2022-09-09T08:25:50;21.00;99.90
13998;DHT22;7074;51.508;7.018;2022-09-09T08:28:19;21.00;99.90
13998;DHT22;7074;51.508;7.018;2022-09-09T08:30:46;21.10;99.90
13998;DHT22;7074;51.508;7.018;2022-09-09T08:33:15;21.20;99.90
13998;DHT22;7074;51.508;7.018;2022-09-09T08:35:50;21.20;99.90
13998;DHT22;7074;51.508;7.018;2022-09-09T08:38:25;21.20;99.90
13998;DHT22;7074;51.508;7.018;2022-09-09T08:40:59;21.10;99.90
13998;DHT22;7074;51.508;7.018;2022-09-09T08:43:29;21.40;99.90
13998;DHT22;7074;51.508;7.018;2022-09-09T08:46:03;21.50;99.90
13998;DHT22;7074;51.508;7.018;2022-09-09T08:48:51;21.70;99.90
13998;DHT22;7074;51.508;7.018;2022-09-09T08:51:20;21.70;99.90
13998;DHT22;7074;51.508;7.018;2022-09-09T08:53:51;21.80;99.90
13998;DHT22;7074;51.508;7.018;2022-09-09T08:56:21;21.80;99.90
13998;DHT22;7074;51.508;7.018;2022-09-09T08:58:55;21.90;99.90
13998;DHT22;7074;51.508;7.018;2022-09-09T09:02:00;22.00;99.90
13998;DHT22;7074;51.508;7.018;2022-09-09T09:04:50;22.10;99.90
13998;DHT22;7074;51.508;7.018;2022-09-09T09:07:38;22.30;99.90
13998;DHT22;7074;51.508;7.018;2022-09-09T09:10:15;22.40;99.90
13998;DHT22;7074;51.508;7.018;2022-09-09T09:12:48;22.50;99.90
13998;DHT22;7074;51.508;7.018;2022-09-09T09:15:20;22.50;99.90
13998;DHT22;7074;51.508;7.018;2022-09-09T09:17:50;22.50;99.90
13998;DHT22;7074;51.508;7.018;2022-09-09T09:20:33;22.40;99.90
13998;DHT22;7074;51.508;7.018;2022-09-09T09:23:16;22.60;99.90
13998;DHT22;7074;51.508;7.018;2022-09-09T09:25:48;22.60;99.90
13998;DHT22;7074;51.508;7.018;2022-09-09T09:28:20;22.70;99.90
13998;DHT22;7074;51.508;7.018;2022-09-09T09:31:01;22.80;99.90
13998;DHT22;7074;51.508;7.018;2022-09-09T09:33:41;22.70;99.90
13998;DHT22;7074;51.508;7.018;2022-09-09T09:36:14;22.70;99.90
13998;DHT22;7074;51.508;7.018;2022-09-09T09:38:57;22.60;99.90
13998;DHT22;7074;51.508;7.018;2022-09-09T09:41:43;22.60;99.90
13998;DHT22;7074;51.508;7.018;2022-09-09T09:44:23;22.60;99.90
13998;DHT22;7074;51.508;7.018;2022-09-09T09:46:52;22.40;99.90
13998;DHT22;7074;51.508;7.018;2022-09-09T09:49:20;22.20;99.90
13998;DHT22;7074;51.508;7.018;2022-09-09T09:51:49;22.30;99.90
13998;DHT22;7074;51.508;7.018;2022-09-09T09:54:22;22.40;99.90
13998;DHT22;7074;51.508;7.018;2022-09-09T09:57:09;22.50;99.90
13998;DHT22;7074;51.508;7.018;2022-09-09T09:59:38;22.50;99.90
13998;DHT22;7074;51.508;7.018;2022-09-09T10:02:17;22.50;99.90
13998;DHT22;7074;51.508;7.018;2022-09-09T10:05:01;22.50;99.90
13998;DHT22;7074;51.508;7.018;2022-09-09T10:07:31;22.50;99.90
13998;DHT22;7074;51.508;7.018;2022-09-09T10:10:00;22.50;99.90
13998;DHT22;7074;51.508;7.018;2022-09-09T10:12:38;22.30;99.90
13998;DHT22;7074;51.508;7.018;2022-09-09T10:15:26;22.30;99.90
13998;DHT22;7074;51.508;7.018;2022-09-09T10:18:07;22.10;99.90
13998;DHT22;7074;51.508;7.018;2022-09-09T10:20:45;22.20;99.90
13998;DHT22;7074;51.508;7.018;2022-09-09T10:23:41;22.20;99.90
13998;DHT22;7074;51.508;7.018;2022-09-09T10:26:22;22.20;99.90
13998;DHT22;7074;51.508;7.018;2022-09-09T10:29:11;22.50;99.90
13998;DHT22;7074;51.508;7.018;2022-09-09T10:31:48;22.70;99.90
13998;DHT22;7074;51.508;7.018;2022-09-09T10:34:41;22.90;99.90
13998;DHT22;7074;51.508;7.018;2022-09-09T10:37:24;23.10;99.90
13998;DHT22;7074;51.508;7.018;2022-09-09T10:40:04;23.20;99.90
13998;DHT22;7074;51.508;7.018;2022-09-09T10:42:36;23.00;99.90
13998;DHT22;7074;51.508;7.018;2022-09-09T10:45:15;23.00;99.90
13998;DHT22;7074;51.508;7.018;2022-09-09T10:47:57;22.70;99.90
13998;DHT22;7074;51.508;7.018;2022-09-09T10:50:45;22.70;99.90
13998;DHT22;7074;51.508;7.018;2022-09-09T10:53:27;22.70;99.90
13998;DHT22;7074;51.508;7.018;2022-09-09T10:56:27;22.70;99.90
13998;DHT22;7074;51.508;7.018;2022-09-09T10:59:17;22.60;99.90
13998;DHT22;7074;51.508;7.018;2022-09-09T11:01:55;22.50;99.90
13998;DHT22;7074;51.508;7.018;2022-09-09T11:04:38;22.40;99.90
13998;DHT22;7074;51.508;7.018;2022-09-09T11:07:12;22.40;99.90
13998;DHT22;7074;51.508;7.018;2022-09-09T11:09:45;22.50;99.90
13998;DHT22;7074;51.508;7.018;2022-09-09T11:12:22;22.50;99.90
13998;DHT22;7074;51.508;7.018;2022-09-09T11:14:54;22.70;99.90
13998;DHT22;7074;51.508;7.018;2022-09-09T11:17:26;22.60;99.90
13998;DHT22;7074;51.508;7.018;2022-09-09T11:19:54;22.70;99.90
13998;DHT22;7074;51.508;7.018;2022-09-09T11:22:27;22.70;99.90
13998;DHT22;7074;51.508;7.018;2022-09-09T11:25:00;22.60;99.90
13998;DHT22;7074;51.508;7.018;2022-09-09T11:27:37;22.60;99.90
13998;DHT22;7074;51.508;7.018;2022-09-09T11:30:16;22.60;99.90
13998;DHT22;7074;51.508;7.018;2022-09-09T11:36:56;22.80;99.90
13998;DHT22;7074;51.508;7.018;2022-09-09T11:40:14;22.90;99.90
13998;DHT22;7074;51.508;7.018;2022-09-09T11:43:01;22.90;99.90
13998;DHT22;7074;51.508;7.018;2022-09-09T11:45:43;23.00;99.90
13998;DHT22;7074;51.508;7.018;2022-09-09T11:48:31;23.00;99.90
13998;DHT22;7074;51.508;7.018;2022-09-09T11:51:33;22.90;99.90
13998;DHT22;7074;51.508;7.018;2022-09-09T11:54:29;22.80;99.90
13998;DHT22;7074;51.508;7.018;2022-09-09T11:57:03;22.70;99.90
13998;DHT22;7074;51.508;7.018;2022-09-09T11:59:50;22.60;99.90
13998;DHT22;7074;51.508;7.018;2022-09-09T12:11:29;22.40;99.90
13998;DHT22;7074;51.508;7.018;2022-09-09T12:15:16;22.10;99.90
13998;DHT22;7074;51.508;7.018;2022-09-09T12:30:25;22.60;99.90
13998;DHT22;7074;51.508;7.018;2022-09-09T12:39:52;22.60;99.90
13998;DHT22;7074;51.508;7.018;2022-09-09T12:41:40;22.30;99.90
13998;DHT22;7074;51.508;7.018;2022-09-09T12:44:13;22.10;99.90
13998;DHT22;7074;51.508;7.018;2022-09-09T12:53:38;22.20;99.90
13998;DHT22;7074;51.508;7.018;2022-09-09T12:56:18;22.20;99.90
13998;DHT22;7074;51.508;7.018;2022-09-09T12:59:25;22.20;99.90
13998;DHT22;7074;51.508;7.018;2022-09-09T13:02:33;22.00;99.90
13998;DHT22;7074;51.508;7.018;2022-09-09T13:05:24;22.00;99.90
13998;DHT22;7074;51.508;7.018;2022-09-09T13:08:35;22.00;99.90
13998;DHT22;7074;51.508;7.018;2022-09-09T13:11:18;21.90;99.90
13998;DHT22;7074;51.508;7.018;2022-09-09T13:14:22;21.70;99.90
13998;DHT22;7074;51.508;7.018;2022-09-09T13:17:53;21.50;99.90
13998;DHT22;7074;51.508;7.018;2022-09-09T13:20:22;21.30;99.90
13998;DHT22;7074;51.508;7.018;2022-09-09T13:22:51;21.00;99.90
13998;DHT22;7074;51.508;7.018;2022-09-09T13:25:26;20.80;99.90
13998;DHT22;7074;51.508;7.018;2022-09-09T13:27:59;20.60;99.90
13998;DHT22;7074;51.508;7.018;2022-09-09T13:30:28;20.40;99.90
13998;DHT22;7074;51.508;7.018;2022-09-09T13:33:01;20.50;99.90
13998;DHT22;7074;51.508;7.018;2022-09-09T13:35:29;20.50;99.90
13998;DHT22;7074;51.508;7.018;2022-09-09T13:37:57;20.60;99.90
13998;DHT22;7074;51.508;7.018;2022-09-09T13:40:27;20.60;99.90
13998;DHT22;7074;51.508;7.018;2022-09-09T13:42:56;20.60;99.90
13998;DHT22;7074;51.508;7.018;2022-09-09T13:45:26;20.50;99.90
13998;DHT22;7074;51.508;7.018;2022-09-09T13:47:54;20.50;99.90
13998;DHT22;7074;51.508;7.018;2022-09-09T13:50:23;20.30;99.90
13998;DHT22;7074;51.508;7.018;2022-09-09T13:52:52;20.40;99.90
13998;DHT22;7074;51.508;7.018;2022-09-09T13:55:21;20.50;99.90
13998;DHT22;7074;51.508;7.018;2022-09-09T13:57:55;20.60;99.90
13998;DHT22;7074;51.508;7.018;2022-09-09T14:00:23;20.60;99.90
13998;DHT22;7074;51.508;7.018;2022-09-09T14:02:51;20.70;99.90
13998;DHT22;7074;51.508;7.018;2022-09-09T14:05:21;20.70;99.90
13998;DHT22;7074;51.508;7.018;2022-09-09T14:07:49;20.80;99.90
13998;DHT22;7074;51.508;7.018;2022-09-09T14:10:17;21.00;99.90
13998;DHT22;7074;51.508;7.018;2022-09-09T14:12:44;21.30;99.90
13998;DHT22;7074;51.508;7.018;2022-09-09T14:15:13;21.40;99.90
13998;DHT22;7074;51.508;7.018;2022-09-09T14:17:42;21.50;99.90
13998;DHT22;7074;51.508;7.018;2022-09-09T14:20:10;21.50;99.90
13998;DHT22;7074;51.508;7.018;2022-09-09T14:22:40;21.50;99.90
13998;DHT22;7074;51.508;7.018;2022-09-09T14:25:09;21.50;99.90
13998;DHT22;7074;51.508;7.018;2022-09-09T14:27:37;21.50;99.90
13998;DHT22;7074;51.508;7.018;2022-09-09T14:30:06;21.60;99.90
13998;DHT22;7074;51.508;7.018;2022-09-09T14:32:35;21.70;99.90
13998;DHT22;7074;51.508;7.018;2022-09-09T14:35:02;21.90;99.90
13998;DHT22;7074;51.508;7.018;2022-09-09T14:37:29;21.80;99.90
13998;DHT22;7074;51.508;7.018;2022-09-09T14:39:57;21.90;99.90
13998;DHT22;7074;51.508;7.018;2022-09-09T14:42:24;21.80;99.90
13998;DHT22;7074;51.508;7.018;2022-09-09T14:44:52;21.60;99.90
13998;DHT22;7074;51.508;7.018;2022-09-09T14:47:19;21.60;99.90
13998;DHT22;7074;51.508;7.018;2022-09-09T14:49:48;21.60;99.90
13998;DHT22;7074;51.508;7.018;2022-09-09T14:52:16;21.60;99.90
13998;DHT22;7074;51.508;7.018;2022-09-09T14:54:43;21.60;99.90
13998;DHT22;7074;51.508;7.018;2022-09-09T14:57:10;21.40;99.90
13998;DHT22;7074;51.508;7.018;2022-09-09T14:59:38;21.40;99.90
13998;DHT22;7074;51.508;7.018;2022-09-09T15:02:07;21.50;99.90
13998;DHT22;7074;51.508;7.018;2022-09-09T15:04:34;21.50;99.90
13998;DHT22;7074;51.508;7.018;2022-09-09T15:07:03;21.40;99.90
13998;DHT22;7074;51.508;7.018;2022-09-09T15:09:30;21.00;99.90
13998;DHT22;7074;51.508;7.018;2022-09-09T15:11:58;20.30;99.90
13998;DHT22;7074;51.508;7.018;2022-09-09T15:14:26;20.20;99.90
13998;DHT22;7074;51.508;7.018;2022-09-09T15:16:53;20.10;99.90
13998;DHT22;7074;51.508;7.018;2022-09-09T15:19:21;20.00;99.90
13998;DHT22;7074;51.508;7.018;2022-09-09T15:21:48;19.80;99.90
13998;DHT22;7074;51.508;7.018;2022-09-09T15:24:17;19.70;99.90
13998;DHT22;7074;51.508;7.018;2022-09-09T15:26:44;19.80;99.90
13998;DHT22;7074;51.508;7.018;2022-09-09T15:29:12;19.70;99.90
13998;DHT22;7074;51.508;7.018;2022-09-09T15:31:39;19.70;99.90
13998;DHT22;7074;51.508;7.018;2022-09-09T15:34:07;19.50;99.90
13998;DHT22;7074;51.508;7.018;2022-09-09T15:36:35;19.60;99.90
13998;DHT22;7074;51.508;7.018;2022-09-09T15:39:04;19.50;99.90
13998;DHT22;7074;51.508;7.018;2022-09-09T15:41:33;19.50;99.90
13998;DHT22;7074;51.508;7.018;2022-09-09T15:44:01;19.60;99.90
13998;DHT22;7074;51.508;7.018;2022-09-09T15:46:31;19.50;99.90
13998;DHT22;7074;51.508;7.018;2022-09-09T15:49:04;19.50;99.90
13998;DHT22;7074;51.508;7.018;2022-09-09T15:51:32;19.50;99.90
13998;DHT22;7074;51.508;7.018;2022-09-09T15:54:00;19.50;99.90
13998;DHT22;7074;51.508;7.018;2022-09-09T15:56:28;19.50;99.90
13998;DHT22;7074;51.508;7.018;2022-09-09T15:59:00;19.40;99.90
13998;DHT22;7074;51.508;7.018;2022-09-09T16:01:29;19.40;99.90
13998;DHT22;7074;51.508;7.018;2022-09-09T16:03:58;19.40;99.90
13998;DHT22;7074;51.508;7.018;2022-09-09T16:06:28;19.40;99.90
13998;DHT22;7074;51.508;7.018;2022-09-09T16:08:56;19.30;99.90
13998;DHT22;7074;51.508;7.018;2022-09-09T16:11:26;19.30;99.90
13998;DHT22;7074;51.508;7.018;2022-09-09T16:13:55;19.20;99.90
13998;DHT22;7074;51.508;7.018;2022-09-09T16:16:25;19.40;99.90
13998;DHT22;7074;51.508;7.018;2022-09-09T16:18:54;19.40;99.90
13998;DHT22;7074;51.508;7.018;2022-09-09T16:21:23;19.40;99.90
13998;DHT22;7074;51.508;7.018;2022-09-09T16:23:51;19.50;99.90
13998;DHT22;7074;51.508;7.018;2022-09-09T16:26:19;19.50;99.90
13998;DHT22;7074;51.508;7.018;2022-09-09T16:28:47;19.50;99.90
13998;DHT22;7074;51.508;7.018;2022-09-09T16:31:17;19.50;99.90
13998;DHT22;7074;51.508;7.018;2022-09-09T16:33:46;19.40;99.90
13998;DHT22;7074;51.508;7.018;2022-09-09T16:36:17;19.40;99.90
13998;DHT22;7074;51.508;7.018;2022-09-09T16:38:45;19.30;99.90
13998;DHT22;7074;51.508;7.018;2022-09-09T16:41:13;19.30;99.90
13998;DHT22;7074;51.508;7.018;2022-09-09T16:43:41;19.30;99.90
13998;DHT22;7074;51.508;7.018;2022-09-09T16:46:13;19.40;99.90
13998;DHT22;7074;51.508;7.018;2022-09-09T16:48:42;19.40;99.90
13998;DHT22;7074;51.508;7.018;2022-09-09T16:51:14;19.40;99.90
13998;DHT22;7074;51.508;7.018;2022-09-09T16:53:42;19.40;99.90
13998;DHT22;7074;51.508;7.018;2022-09-09T16:56:11;19.40;99.90
13998;DHT22;7074;51.508;7.018;2022-09-09T16:58:39;19.30;99.90
13998;DHT22;7074;51.508;7.018;2022-09-09T17:01:06;19.30;99.90
13998;DHT22;7074;51.508;7.018;2022-09-09T17:03:34;19.30;99.90
13998;DHT22;7074;51.508;7.018;2022-09-09T17:06:01;19.30;99.90